Terminal Aerodrome Forecast
Issued by NWS

Home | Current Version | Previous Version | Text Only | Print | Product List | Glossary On
Versions: 1 2 3 4 5 6 7 8 9 10 11 12
000
FTUS42 KTBW 041746
TAFLAL
TAF
KLAL 041746Z 0418/0518 12010G20KT P6SM SCT030 SCT250
     FM042000 14009KT P6SM BKN035
     FM050700 12006KT 2SM BR BKN008
     FM051500 16010KT P6SM SCT010 BKN030=

USA.gov is the U.S. government's official web portal to all federal, state and local government web resources and services.